createdAt,value
2023-03-02T00:02:18.858Z,1.22
2023-03-02T00:07:32.189Z,1.23
2023-03-02T00:12:33.935Z,1.17
2023-03-02T00:17:35.386Z,1.11
2023-03-02T00:22:40.627Z,1.10
2023-03-02T00:27:42.110Z,1.03
2023-03-02T00:32:43.524Z,1.02
2023-03-02T00:37:44.924Z,1.13
2023-03-02T00:42:46.411Z,1.12
2023-03-02T00:47:47.858Z,1.05
2023-03-02T00:52:49.203Z,0.85
2023-03-02T00:57:53.291Z,0.85
2023-03-02T01:02:54.929Z,0.97
2023-03-02T01:07:56.380Z,0.79
2023-03-02T01:12:57.730Z,0.74
2023-03-02T01:17:59.822Z,0.81
2023-03-02T01:23:01.267Z,0.89
2023-03-02T01:28:02.606Z,0.89
2023-03-02T01:33:04.011Z,0.71
2023-03-02T01:38:05.452Z,1.01
2023-03-02T01:43:11.311Z,0.82
2023-03-02T01:48:13.842Z,0.73
2023-03-02T01:53:15.762Z,0.73
2023-03-02T01:58:17.453Z,0.68
2023-03-02T02:03:22.044Z,0.80
2023-03-02T02:08:23.450Z,0.59
2023-03-02T02:13:24.975Z,0.97
2023-03-02T02:18:26.372Z,0.86
2023-03-02T02:23:48.006Z,0.61
2023-03-02T02:29:00.500Z,0.58
2023-03-02T02:34:14.337Z,0.53
2023-03-02T02:39:23.905Z,0.55
2023-03-02T02:44:25.229Z,0.37
2023-03-02T02:49:26.537Z,0.42
2023-03-02T02:54:28.640Z,0.45
2023-03-02T02:59:33.318Z,0.51
2023-03-02T03:04:34.724Z,0.59
2023-03-02T03:09:36.223Z,0.70
2023-03-02T03:14:39.584Z,0.55
2023-03-02T03:19:42.126Z,0.62
2023-03-02T03:24:44.424Z,0.45
2023-03-02T03:29:46.832Z,0.45
2023-03-02T03:34:48.465Z,0.47
2023-03-02T03:39:49.848Z,0.34
2023-03-02T03:44:51.198Z,0.45
2023-03-02T03:49:52.543Z,0.26
2023-03-02T03:54:53.878Z,0.52
2023-03-02T03:59:55.308Z,0.33
2023-03-02T04:04:56.613Z,0.34
2023-03-02T04:09:57.992Z,0.21
2023-03-02T04:14:59.342Z,0.15
2023-03-02T04:20:00.798Z,0.32
2023-03-02T04:25:02.195Z,0.28
2023-03-02T04:30:03.732Z,0.14
2023-03-02T04:35:05.345Z,-0.01
2023-03-02T04:40:07.727Z,0.10
2023-03-02T04:45:09.305Z,0.11
2023-03-02T04:50:11.863Z,0.23
2023-03-02T04:55:18.070Z,0.01
2023-03-02T05:00:19.970Z,-0.08
2023-03-02T05:05:22.887Z,-0.35
2023-03-02T05:10:24.677Z,0.07
2023-03-02T05:15:28.485Z,0.01
2023-03-02T05:20:29.957Z,-0.10
2023-03-02T05:25:32.230Z,-0.16
2023-03-02T05:30:33.638Z,-0.20
2023-03-02T05:35:35.232Z,-0.13
2023-03-02T05:40:36.706Z,-0.09
2023-03-02T05:45:38.432Z,-0.11
2023-03-02T05:50:40.311Z,-0.21
2023-03-02T05:55:41.643Z,-0.15
2023-03-02T06:00:43.541Z,-0.19
2023-03-02T06:05:44.995Z,-0.16
2023-03-02T06:10:46.347Z,-0.26
2023-03-02T06:15:47.700Z,-0.23
2023-03-02T06:20:49.864Z,-0.16
2023-03-02T06:25:51.311Z,-0.29
2023-03-02T06:30:52.665Z,0.03
2023-03-02T06:35:54.113Z,-0.15
2023-03-02T06:40:55.498Z,-0.24
2023-03-02T06:45:56.956Z,-0.13
2023-03-02T06:50:58.436Z,-0.10
2023-03-02T06:55:59.814Z,0.16
2023-03-02T07:01:01.189Z,0.20
2023-03-02T07:06:02.740Z,-0.09
2023-03-02T07:11:08.526Z,-0.11
2023-03-02T07:16:11.383Z,0.18
2023-03-02T07:21:12.726Z,0.39
2023-03-02T07:26:14.268Z,0.42
2023-03-02T07:31:15.815Z,1.08
2023-03-02T07:36:17.255Z,0.71
2023-03-02T07:41:18.649Z,1.05
2023-03-02T07:46:20.063Z,1.19
2023-03-02T07:51:21.507Z,1.64
2023-03-02T07:56:22.854Z,1.52
2023-03-02T08:01:24.466Z,1.75
2023-03-02T08:06:25.924Z,2.09
2023-03-02T08:11:27.365Z,2.32
2023-03-02T08:16:29.336Z,2.66
2023-03-02T08:21:31.105Z,2.59
2023-03-02T08:26:32.785Z,3.02
2023-03-02T08:31:34.510Z,3.47
2023-03-02T08:36:36.197Z,3.42
2023-03-02T08:41:37.586Z,3.74
2023-03-02T08:46:38.942Z,3.77
2023-03-02T08:51:40.390Z,4.24
2023-03-02T08:56:41.776Z,4.53
2023-03-02T09:01:43.482Z,5.07
2023-03-02T09:06:45.571Z,5.38
2023-03-02T09:11:46.945Z,5.67
2023-03-02T09:16:48.332Z,5.78
2023-03-02T09:21:49.784Z,5.75
2023-03-02T09:26:51.273Z,6.16
2023-03-02T09:31:52.761Z,6.42
2023-03-02T09:36:54.354Z,6.64
2023-03-02T09:42:00.926Z,6.72
2023-03-02T09:47:12.877Z,6.94
2023-03-02T09:52:33.083Z,7.04
2023-03-02T09:57:37.452Z,7.21
2023-03-02T10:02:49.338Z,7.25
2023-03-02T10:07:50.933Z,7.06
2023-03-02T10:12:59.889Z,7.56
2023-03-02T10:18:09.396Z,7.43
2023-03-02T10:23:16.529Z,7.34
2023-03-02T10:28:22.220Z,7.45
2023-03-02T10:33:23.727Z,7.43
2023-03-02T10:38:25.484Z,7.51
2023-03-02T10:43:37.060Z,7.59
2023-03-02T10:48:50.753Z,7.56
2023-03-02T10:54:04.530Z,7.35
2023-03-02T10:59:24.335Z,7.47
2023-03-02T11:04:25.745Z,7.63
2023-03-02T11:14:33.378Z,7.57
2023-03-02T11:19:36.647Z,7.60
2023-03-02T11:24:41.024Z,7.78
2023-03-02T11:29:49.884Z,7.43
2023-03-02T11:34:51.186Z,7.67
2023-03-02T11:39:58.476Z,7.74
2023-03-02T11:45:16.602Z,7.72
2023-03-02T11:50:17.923Z,7.51
2023-03-02T11:55:21.362Z,7.83
2023-03-02T12:00:37.003Z,7.83
2023-03-02T12:05:38.835Z,7.95
2023-03-02T12:10:42.203Z,7.99
2023-03-02T12:15:45.123Z,7.48
2023-03-02T12:20:57.603Z,7.42
2023-03-02T12:26:21.694Z,7.77
2023-03-02T12:31:23.085Z,7.76
2023-03-02T12:36:32.399Z,7.63
2023-03-02T12:41:48.558Z,7.97
2023-03-02T12:46:51.403Z,7.86
2023-03-02T12:51:57.739Z,7.95
2023-03-02T12:57:14.793Z,7.96
2023-03-02T13:02:26.253Z,7.87
2023-03-02T13:07:30.146Z,7.72
2023-03-02T13:12:31.540Z,7.86
2023-03-02T13:17:33.003Z,7.97
2023-03-02T13:22:34.592Z,7.96
2023-03-02T13:27:36.027Z,7.91
2023-03-02T13:32:41.174Z,8.07
2023-03-02T13:37:43.989Z,7.85
2023-03-02T13:42:45.565Z,8.36
2023-03-02T13:47:46.949Z,8.49
2023-03-02T13:52:48.831Z,8.14
2023-03-02T13:57:51.306Z,8.37
2023-03-02T14:02:52.651Z,8.24
2023-03-02T14:07:54.100Z,7.89
2023-03-02T14:13:00.126Z,7.81
2023-03-02T14:18:01.565Z,8.29
2023-03-02T14:23:02.922Z,8.25
2023-03-02T14:28:04.431Z,8.18
2023-03-02T14:33:05.799Z,8.27
2023-03-02T14:38:07.150Z,8.69
2023-03-02T14:43:11.626Z,8.30
2023-03-02T14:48:13.094Z,8.33
2023-03-02T14:53:19.288Z,8.12
2023-03-02T14:58:25.414Z,8.42
2023-03-02T15:03:27.276Z,8.33
2023-03-02T15:08:29.105Z,8.33
2023-03-02T15:13:30.456Z,8.30
2023-03-02T15:18:31.917Z,8.42
2023-03-02T15:23:33.585Z,7.99
2023-03-02T15:28:34.921Z,8.27
2023-03-02T15:33:36.895Z,8.53
2023-03-02T15:38:38.347Z,8.27
2023-03-02T15:43:39.792Z,8.16
2023-03-02T15:48:41.430Z,8.11
2023-03-02T15:53:43.109Z,8.09
2023-03-02T15:58:48.232Z,7.95
2023-03-02T16:03:49.639Z,8.01
2023-03-02T16:08:50.975Z,8.03
2023-03-02T16:13:52.644Z,8.13
2023-03-02T16:18:55.033Z,8.09
2023-03-02T16:23:56.498Z,7.94
2023-03-02T16:28:58.487Z,7.83
2023-03-02T16:33:59.846Z,7.99
2023-03-02T16:39:01.320Z,7.76
2023-03-02T16:44:02.744Z,7.83
2023-03-02T16:49:04.641Z,7.96
2023-03-02T16:54:06.176Z,7.79
2023-03-02T16:59:07.547Z,7.77
2023-03-02T17:04:09.051Z,7.79
2023-03-02T17:09:13.295Z,7.83
2023-03-02T17:14:14.824Z,7.74
2023-03-02T17:19:16.164Z,7.88
2023-03-02T17:24:17.521Z,7.57
2023-03-02T17:29:18.888Z,7.37
2023-03-02T17:34:20.250Z,7.13
2023-03-02T17:39:21.691Z,6.92
2023-03-02T17:44:23.050Z,6.72
2023-03-02T17:49:24.445Z,6.61
2023-03-02T17:54:25.805Z,6.44
2023-03-02T17:59:27.183Z,6.33
2023-03-02T18:04:28.624Z,6.17
2023-03-02T18:09:30.002Z,6.14
2023-03-02T18:14:31.325Z,6.00
2023-03-02T18:19:32.760Z,5.91
2023-03-02T18:24:34.166Z,5.80
2023-03-02T18:29:35.509Z,5.72
2023-03-02T18:34:36.950Z,5.64
2023-03-02T18:39:38.383Z,5.57
2023-03-02T18:44:39.979Z,5.52
2023-03-02T18:49:41.308Z,5.43
2023-03-02T18:54:43.472Z,5.44
2023-03-02T18:59:44.877Z,5.28
2023-03-02T19:04:46.344Z,5.23
2023-03-02T19:09:47.684Z,5.13
2023-03-02T19:14:49.161Z,5.14
2023-03-02T19:19:50.530Z,4.97
2023-03-02T19:24:51.957Z,4.98
2023-03-02T19:29:53.683Z,4.92
2023-03-02T19:34:55.006Z,4.76
2023-03-02T19:39:56.394Z,4.82
2023-03-02T19:44:57.750Z,4.76
2023-03-02T19:49:59.153Z,4.66
2023-03-02T19:55:00.601Z,4.63
2023-03-02T20:00:02.049Z,4.49
2023-03-02T20:05:03.853Z,4.44
2023-03-02T20:10:06.024Z,4.40
2023-03-02T20:15:07.464Z,4.43
2023-03-02T20:20:10.299Z,4.31
2023-03-02T20:25:12.416Z,4.26
2023-03-02T20:30:15.043Z,4.17
2023-03-02T20:35:16.400Z,4.20
2023-03-02T20:40:18.078Z,4.12
2023-03-02T20:45:20.099Z,4.15
2023-03-02T20:50:23.200Z,4.02
2023-03-02T20:55:24.746Z,3.90
2023-03-02T21:00:27.388Z,3.86
2023-03-02T21:05:29.538Z,3.83
2023-03-02T21:10:33.444Z,3.94
2023-03-02T21:15:35.564Z,3.88
2023-03-02T21:20:37.128Z,3.70
2023-03-02T21:25:39.935Z,3.63
2023-03-02T21:30:43.373Z,3.60
2023-03-02T21:35:44.828Z,3.55
2023-03-02T21:40:46.319Z,3.55
2023-03-02T21:45:47.901Z,3.47
2023-03-02T21:50:49.359Z,3.40
2023-03-02T21:55:50.872Z,3.40
2023-03-02T22:00:52.247Z,3.31
2023-03-02T22:05:53.595Z,3.23
2023-03-02T22:10:54.915Z,3.31
2023-03-02T22:16:02.735Z,3.09
2023-03-02T22:21:17.534Z,3.11
2023-03-02T22:26:19.057Z,3.13
2023-03-02T22:31:21.465Z,3.01
2023-03-02T22:36:24.022Z,3.07
2023-03-02T22:41:25.368Z,3.02
2023-03-02T22:46:26.805Z,3.01
2023-03-02T22:51:29.370Z,3.02
2023-03-02T22:56:34.067Z,2.93
2023-03-02T23:01:38.521Z,2.95
2023-03-02T23:06:44.727Z,2.98
2023-03-02T23:11:46.181Z,2.86
2023-03-02T23:17:10.558Z,2.85
2023-03-02T23:22:12.034Z,2.83
2023-03-02T23:27:13.405Z,2.81
2023-03-02T23:32:15.824Z,2.73
2023-03-02T23:37:18.079Z,2.66
2023-03-02T23:42:19.774Z,2.69
2023-03-02T23:47:21.129Z,2.59
2023-03-02T23:52:22.669Z,2.47
2023-03-02T23:57:24.072Z,2.54
